sensor_id;sensor_type;location;lat;lon;timestamp;temperature;humidity
11320;DHT22;5715;48.234;14.320;2024-02-26T00:00:07;0.80;99.90
11320;DHT22;5715;48.234;14.320;2024-02-26T00:02:56;0.80;99.90
11320;DHT22;5715;48.234;14.320;2024-02-26T00:05:44;0.70;99.90
11320;DHT22;5715;48.234;14.320;2024-02-26T00:08:32;0.70;99.90
11320;DHT22;5715;48.234;14.320;2024-02-26T00:11:19;0.70;99.90
11320;DHT22;5715;48.234;14.320;2024-02-26T00:14:07;0.70;99.90
11320;DHT22;5715;48.234;14.320;2024-02-26T00:16:54;0.70;99.90
11320;DHT22;5715;48.234;14.320;2024-02-26T00:19:42;0.70;99.90
11320;DHT22;5715;48.234;14.320;2024-02-26T00:22:31;0.70;99.90
11320;DHT22;5715;48.234;14.320;2024-02-26T00:25:18;0.60;99.90
11320;DHT22;5715;48.234;14.320;2024-02-26T00:28:07;0.60;99.90
11320;DHT22;5715;48.234;14.320;2024-02-26T00:30:54;0.50;99.90
11320;DHT22;5715;48.234;14.320;2024-02-26T00:33:43;0.50;99.90
11320;DHT22;5715;48.234;14.320;2024-02-26T00:36:31;0.50;99.90
11320;DHT22;5715;48.234;14.320;2024-02-26T00:39:18;0.50;99.90
11320;DHT22;5715;48.234;14.320;2024-02-26T00:42:06;0.40;99.90
11320;DHT22;5715;48.234;14.320;2024-02-26T00:44:54;0.40;99.90
11320;DHT22;5715;48.234;14.320;2024-02-26T00:47:42;0.40;99.90
11320;DHT22;5715;48.234;14.320;2024-02-26T00:50:32;0.30;99.90
11320;DHT22;5715;48.234;14.320;2024-02-26T00:53:19;0.20;99.90
11320;DHT22;5715;48.234;14.320;2024-02-26T00:56:07;0.20;99.90
11320;DHT22;5715;48.234;14.320;2024-02-26T00:58:54;0.10;99.90
11320;DHT22;5715;48.234;14.320;2024-02-26T01:01:42;0.10;99.90
11320;DHT22;5715;48.234;14.320;2024-02-26T01:04:30;0.10;99.90
11320;DHT22;5715;48.234;14.320;2024-02-26T01:07:19;0.10;99.90
11320;DHT22;5715;48.234;14.320;2024-02-26T01:10:07;0.10;99.90
11320;DHT22;5715;48.234;14.320;2024-02-26T01:12:55;0.00;99.90
11320;DHT22;5715;48.234;14.320;2024-02-26T01:15:43;0.00;99.90
11320;DHT22;5715;48.234;14.320;2024-02-26T01:18:31;0.00;99.90
11320;DHT22;5715;48.234;14.320;2024-02-26T01:21:19;-0.10;99.90
11320;DHT22;5715;48.234;14.320;2024-02-26T01:24:07;-0.10;99.90
11320;DHT22;5715;48.234;14.320;2024-02-26T01:26:54;-0.10;99.90
11320;DHT22;5715;48.234;14.320;2024-02-26T01:29:42;-0.10;99.90
11320;DHT22;5715;48.234;14.320;2024-02-26T01:32:30;-0.20;99.90
11320;DHT22;5715;48.234;14.320;2024-02-26T01:35:18;-0.30;99.90
11320;DHT22;5715;48.234;14.320;2024-02-26T01:38:07;-0.20;99.90
11320;DHT22;5715;48.234;14.320;2024-02-26T01:40:54;-0.20;99.90
11320;DHT22;5715;48.234;14.320;2024-02-26T01:43:42;-0.20;99.90
11320;DHT22;5715;48.234;14.320;2024-02-26T01:46:30;-0.20;99.90
11320;DHT22;5715;48.234;14.320;2024-02-26T01:49:20;-0.20;99.90
11320;DHT22;5715;48.234;14.320;2024-02-26T01:52:10;-0.30;99.90
11320;DHT22;5715;48.234;14.320;2024-02-26T01:54:58;-0.30;99.90
11320;DHT22;5715;48.234;14.320;2024-02-26T01:57:49;-0.40;99.90
11320;DHT22;5715;48.234;14.320;2024-02-26T02:00:39;-0.40;99.90
11320;DHT22;5715;48.234;14.320;2024-02-26T02:03:27;-0.40;99.90
11320;DHT22;5715;48.234;14.320;2024-02-26T02:06:16;-0.30;99.90
11320;DHT22;5715;48.234;14.320;2024-02-26T02:09:05;-0.30;99.90
11320;DHT22;5715;48.234;14.320;2024-02-26T02:11:55;-0.30;99.90
11320;DHT22;5715;48.234;14.320;2024-02-26T02:14:43;-0.30;99.90
11320;DHT22;5715;48.234;14.320;2024-02-26T02:17:31;-0.20;99.90
11320;DHT22;5715;48.234;14.320;2024-02-26T02:20:19;-0.20;99.90
11320;DHT22;5715;48.234;14.320;2024-02-26T02:23:11;-0.20;99.90
11320;DHT22;5715;48.234;14.320;2024-02-26T02:25:59;-0.20;99.90
11320;DHT22;5715;48.234;14.320;2024-02-26T02:28:47;-0.10;99.90
11320;DHT22;5715;48.234;14.320;2024-02-26T02:31:36;-0.10;99.90
11320;DHT22;5715;48.234;14.320;2024-02-26T02:34:24;-0.10;99.90
11320;DHT22;5715;48.234;14.320;2024-02-26T02:37:12;-0.10;99.90
11320;DHT22;5715;48.234;14.320;2024-02-26T02:40:00;-0.10;99.90
11320;DHT22;5715;48.234;14.320;2024-02-26T02:42:47;-0.10;99.90
11320;DHT22;5715;48.234;14.320;2024-02-26T02:45:35;-0.10;99.90
11320;DHT22;5715;48.234;14.320;2024-02-26T02:48:22;-0.10;99.90
11320;DHT22;5715;48.234;14.320;2024-02-26T02:51:10;-0.10;99.90
11320;DHT22;5715;48.234;14.320;2024-02-26T02:53:58;-0.10;99.90
11320;DHT22;5715;48.234;14.320;2024-02-26T02:56:46;-0.20;99.90
11320;DHT22;5715;48.234;14.320;2024-02-26T02:59:34;-0.20;99.90
11320;DHT22;5715;48.234;14.320;2024-02-26T03:02:22;-0.30;99.90
11320;DHT22;5715;48.234;14.320;2024-02-26T03:05:12;-0.30;99.90
11320;DHT22;5715;48.234;14.320;2024-02-26T03:07:59;-0.30;99.90
11320;DHT22;5715;48.234;14.320;2024-02-26T03:10:47;-0.30;99.90
11320;DHT22;5715;48.234;14.320;2024-02-26T03:13:35;-0.30;99.90
11320;DHT22;5715;48.234;14.320;2024-02-26T03:16:23;-0.30;99.90
11320;DHT22;5715;48.234;14.320;2024-02-26T03:19:11;-0.30;99.90
11320;DHT22;5715;48.234;14.320;2024-02-26T03:22:02;-0.30;99.90
11320;DHT22;5715;48.234;14.320;2024-02-26T03:24:49;-0.40;99.90
11320;DHT22;5715;48.234;14.320;2024-02-26T03:27:37;-0.40;99.90
11320;DHT22;5715;48.234;14.320;2024-02-26T03:30:25;-0.50;99.90
11320;DHT22;5715;48.234;14.320;2024-02-26T03:33:12;-0.50;99.90
11320;DHT22;5715;48.234;14.320;2024-02-26T03:36:00;-0.60;99.90
11320;DHT22;5715;48.234;14.320;2024-02-26T03:38:48;-0.60;99.90
11320;DHT22;5715;48.234;14.320;2024-02-26T03:41:36;-0.60;99.90
11320;DHT22;5715;48.234;14.320;2024-02-26T03:44:24;-0.60;99.90
11320;DHT22;5715;48.234;14.320;2024-02-26T03:47:12;-0.60;99.90
11320;DHT22;5715;48.234;14.320;2024-02-26T03:49:59;-0.60;99.90
11320;DHT22;5715;48.234;14.320;2024-02-26T03:52:47;-0.60;99.90
11320;DHT22;5715;48.234;14.320;2024-02-26T03:55:35;-0.60;99.90
11320;DHT22;5715;48.234;14.320;2024-02-26T03:58:22;-0.50;99.90
11320;DHT22;5715;48.234;14.320;2024-02-26T04:01:10;-0.40;99.90
11320;DHT22;5715;48.234;14.320;2024-02-26T04:03:58;-0.40;99.90
11320;DHT22;5715;48.234;14.320;2024-02-26T04:06:46;-0.40;99.90
11320;DHT22;5715;48.234;14.320;2024-02-26T04:09:34;-0.40;99.90
11320;DHT22;5715;48.234;14.320;2024-02-26T04:12:22;-0.40;99.90
11320;DHT22;5715;48.234;14.320;2024-02-26T04:15:10;-0.40;99.90
11320;DHT22;5715;48.234;14.320;2024-02-26T04:17:59;-0.20;99.90
11320;DHT22;5715;48.234;14.320;2024-02-26T04:20:47;-0.20;99.90
11320;DHT22;5715;48.234;14.320;2024-02-26T04:23:34;-0.20;99.90
11320;DHT22;5715;48.234;14.320;2024-02-26T04:26:22;-0.20;99.90
11320;DHT22;5715;48.234;14.320;2024-02-26T04:29:10;-0.20;99.90
11320;DHT22;5715;48.234;14.320;2024-02-26T04:31:57;-0.20;99.90
11320;DHT22;5715;48.234;14.320;2024-02-26T04:34:45;-0.10;99.90
11320;DHT22;5715;48.234;14.320;2024-02-26T04:37:33;-0.10;99.90
11320;DHT22;5715;48.234;14.320;2024-02-26T04:40:21;-0.10;99.90
11320;DHT22;5715;48.234;14.320;2024-02-26T04:43:08;-0.20;99.90
11320;DHT22;5715;48.234;14.320;2024-02-26T04:45:56;-0.20;99.90
11320;DHT22;5715;48.234;14.320;2024-02-26T04:48:44;-0.20;99.90
11320;DHT22;5715;48.234;14.320;2024-02-26T04:51:34;-0.30;99.90
11320;DHT22;5715;48.234;14.320;2024-02-26T04:54:21;-0.30;99.90
11320;DHT22;5715;48.234;14.320;2024-02-26T04:57:09;-0.30;99.90
11320;DHT22;5715;48.234;14.320;2024-02-26T04:59:57;-0.40;99.90
11320;DHT22;5715;48.234;14.320;2024-02-26T05:02:44;-0.40;99.90
11320;DHT22;5715;48.234;14.320;2024-02-26T05:05:33;-0.40;99.90
11320;DHT22;5715;48.234;14.320;2024-02-26T05:08:20;-0.40;99.90
11320;DHT22;5715;48.234;14.320;2024-02-26T05:11:08;-0.40;99.90
11320;DHT22;5715;48.234;14.320;2024-02-26T05:13:56;-0.50;99.90
11320;DHT22;5715;48.234;14.320;2024-02-26T05:16:44;-0.50;99.90
11320;DHT22;5715;48.234;14.320;2024-02-26T05:19:32;-0.50;99.90
11320;DHT22;5715;48.234;14.320;2024-02-26T05:22:20;-0.50;99.90
11320;DHT22;5715;48.234;14.320;2024-02-26T05:25:07;-0.40;99.90
11320;DHT22;5715;48.234;14.320;2024-02-26T05:27:55;-0.30;99.90
11320;DHT22;5715;48.234;14.320;2024-02-26T05:30:43;-0.40;99.90
11320;DHT22;5715;48.234;14.320;2024-02-26T05:33:30;-0.50;99.90
11320;DHT22;5715;48.234;14.320;2024-02-26T05:36:19;-0.50;99.90
11320;DHT22;5715;48.234;14.320;2024-02-26T05:39:10;-0.60;99.90
11320;DHT22;5715;48.234;14.320;2024-02-26T05:42:04;-0.60;99.90
11320;DHT22;5715;48.234;14.320;2024-02-26T05:44:52;-0.50;99.90
11320;DHT22;5715;48.234;14.320;2024-02-26T05:47:40;-0.50;99.90
11320;DHT22;5715;48.234;14.320;2024-02-26T05:50:30;-0.50;99.90
11320;DHT22;5715;48.234;14.320;2024-02-26T05:53:17;-0.50;99.90
11320;DHT22;5715;48.234;14.320;2024-02-26T05:56:06;-0.50;99.90
11320;DHT22;5715;48.234;14.320;2024-02-26T05:58:53;-0.40;99.90
11320;DHT22;5715;48.234;14.320;2024-02-26T06:01:41;-0.30;99.90
11320;DHT22;5715;48.234;14.320;2024-02-26T06:04:29;-0.30;99.90
11320;DHT22;5715;48.234;14.320;2024-02-26T06:07:17;-0.20;99.90
11320;DHT22;5715;48.234;14.320;2024-02-26T06:10:05;-0.20;99.90
11320;DHT22;5715;48.234;14.320;2024-02-26T06:12:53;-0.20;99.90
11320;DHT22;5715;48.234;14.320;2024-02-26T06:15:41;-0.20;99.90
11320;DHT22;5715;48.234;14.320;2024-02-26T06:18:28;-0.20;99.90
11320;DHT22;5715;48.234;14.320;2024-02-26T06:21:16;-0.20;99.90
11320;DHT22;5715;48.234;14.320;2024-02-26T06:24:04;-0.30;99.90
11320;DHT22;5715;48.234;14.320;2024-02-26T06:26:52;-0.30;99.90
11320;DHT22;5715;48.234;14.320;2024-02-26T06:29:40;-0.30;99.90
11320;DHT22;5715;48.234;14.320;2024-02-26T06:32:27;-0.20;99.90
11320;DHT22;5715;48.234;14.320;2024-02-26T06:35:16;-0.30;99.90
11320;DHT22;5715;48.234;14.320;2024-02-26T06:38:04;-0.20;99.90
11320;DHT22;5715;48.234;14.320;2024-02-26T06:40:51;-0.10;99.90
11320;DHT22;5715;48.234;14.320;2024-02-26T06:43:39;-0.10;99.90
11320;DHT22;5715;48.234;14.320;2024-02-26T06:46:27;0.00;99.90
11320;DHT22;5715;48.234;14.320;2024-02-26T06:49:18;0.10;99.90
11320;DHT22;5715;48.234;14.320;2024-02-26T06:52:06;0.10;99.90
11320;DHT22;5715;48.234;14.320;2024-02-26T06:54:54;0.10;99.90
11320;DHT22;5715;48.234;14.320;2024-02-26T06:57:41;0.00;99.90
11320;DHT22;5715;48.234;14.320;2024-02-26T07:00:29;0.00;99.90
11320;DHT22;5715;48.234;14.320;2024-02-26T07:03:17;0.00;99.90
11320;DHT22;5715;48.234;14.320;2024-02-26T07:06:04;0.10;99.90
11320;DHT22;5715;48.234;14.320;2024-02-26T07:08:53;0.10;99.90
11320;DHT22;5715;48.234;14.320;2024-02-26T07:11:41;0.10;99.90
11320;DHT22;5715;48.234;14.320;2024-02-26T07:14:29;0.10;99.90
11320;DHT22;5715;48.234;14.320;2024-02-26T07:17:17;0.10;99.90
11320;DHT22;5715;48.234;14.320;2024-02-26T07:20:05;0.20;99.90
11320;DHT22;5715;48.234;14.320;2024-02-26T07:22:57;0.10;99.90
11320;DHT22;5715;48.234;14.320;2024-02-26T07:25:44;0.20;99.90
11320;DHT22;5715;48.234;14.320;2024-02-26T07:28:34;0.20;99.90
11320;DHT22;5715;48.234;14.320;2024-02-26T07:31:22;0.30;99.90
11320;DHT22;5715;48.234;14.320;2024-02-26T07:34:10;0.40;99.90
11320;DHT22;5715;48.234;14.320;2024-02-26T07:36:58;0.50;99.90
11320;DHT22;5715;48.234;14.320;2024-02-26T07:39:45;0.60;99.90
11320;DHT22;5715;48.234;14.320;2024-02-26T07:42:33;0.70;99.90
11320;DHT22;5715;48.234;14.320;2024-02-26T07:45:21;0.80;99.90
11320;DHT22;5715;48.234;14.320;2024-02-26T07:48:09;0.70;99.90
11320;DHT22;5715;48.234;14.320;2024-02-26T07:50:57;0.80;99.90
11320;DHT22;5715;48.234;14.320;2024-02-26T07:53:47;0.70;99.90
11320;DHT22;5715;48.234;14.320;2024-02-26T07:56:35;0.60;99.90
11320;DHT22;5715;48.234;14.320;2024-02-26T07:59:22;0.70;99.90
11320;DHT22;5715;48.234;14.320;2024-02-26T08:02:11;0.80;99.90
11320;DHT22;5715;48.234;14.320;2024-02-26T08:04:58;0.80;99.90
11320;DHT22;5715;48.234;14.320;2024-02-26T08:07:46;0.90;99.90
11320;DHT22;5715;48.234;14.320;2024-02-26T08:10:36;1.00;99.90
11320;DHT22;5715;48.234;14.320;2024-02-26T08:13:23;1.10;99.90
11320;DHT22;5715;48.234;14.320;2024-02-26T08:16:11;1.10;99.90
11320;DHT22;5715;48.234;14.320;2024-02-26T08:18:59;1.20;99.90
11320;DHT22;5715;48.234;14.320;2024-02-26T08:21:47;1.20;99.90
11320;DHT22;5715;48.234;14.320;2024-02-26T08:24:34;1.30;99.90
11320;DHT22;5715;48.234;14.320;2024-02-26T08:27:22;1.50;99.90
11320;DHT22;5715;48.234;14.320;2024-02-26T08:30:12;1.70;99.90
11320;DHT22;5715;48.234;14.320;2024-02-26T08:33:03;1.70;99.90
11320;DHT22;5715;48.234;14.320;2024-02-26T08:35:51;1.90;99.90
11320;DHT22;5715;48.234;14.320;2024-02-26T08:38:39;2.10;99.90
11320;DHT22;5715;48.234;14.320;2024-02-26T08:41:27;2.30;99.90
11320;DHT22;5715;48.234;14.320;2024-02-26T08:44:14;2.40;99.90
11320;DHT22;5715;48.234;14.320;2024-02-26T08:47:02;2.60;99.90
11320;DHT22;5715;48.234;14.320;2024-02-26T08:49:50;2.80;99.90
11320;DHT22;5715;48.234;14.320;2024-02-26T08:52:38;3.20;99.90
11320;DHT22;5715;48.234;14.320;2024-02-26T08:55:26;3.30;99.90
11320;DHT22;5715;48.234;14.320;2024-02-26T08:58:13;3.60;99.90
11320;DHT22;5715;48.234;14.320;2024-02-26T09:01:01;3.70;99.90
11320;DHT22;5715;48.234;14.320;2024-02-26T09:03:48;3.70;99.90
11320;DHT22;5715;48.234;14.320;2024-02-26T09:06:37;3.70;99.90
11320;DHT22;5715;48.234;14.320;2024-02-26T09:09:25;3.70;99.90
11320;DHT22;5715;48.234;14.320;2024-02-26T09:12:13;3.60;99.90
11320;DHT22;5715;48.234;14.320;2024-02-26T09:15:01;3.60;99.90
11320;DHT22;5715;48.234;14.320;2024-02-26T09:17:49;3.70;99.90
11320;DHT22;5715;48.234;14.320;2024-02-26T09:20:37;3.70;99.90
11320;DHT22;5715;48.234;14.320;2024-02-26T09:23:26;3.80;99.90
11320;DHT22;5715;48.234;14.320;2024-02-26T09:26:14;3.80;99.90
11320;DHT22;5715;48.234;14.320;2024-02-26T09:29:02;3.90;99.90
11320;DHT22;5715;48.234;14.320;2024-02-26T09:31:51;4.00;99.90
11320;DHT22;5715;48.234;14.320;2024-02-26T09:34:40;4.10;99.90
11320;DHT22;5715;48.234;14.320;2024-02-26T09:37:28;4.20;99.90
11320;DHT22;5715;48.234;14.320;2024-02-26T09:40:16;4.40;99.90
11320;DHT22;5715;48.234;14.320;2024-02-26T09:43:05;4.50;99.90
11320;DHT22;5715;48.234;14.320;2024-02-26T09:45:54;4.70;99.90
11320;DHT22;5715;48.234;14.320;2024-02-26T09:48:44;5.00;99.90
11320;DHT22;5715;48.234;14.320;2024-02-26T09:51:34;5.10;99.90
11320;DHT22;5715;48.234;14.320;2024-02-26T09:54:22;5.30;99.90
11320;DHT22;5715;48.234;14.320;2024-02-26T09:57:14;5.50;99.90
11320;DHT22;5715;48.234;14.320;2024-02-26T10:00:04;5.80;99.90
11320;DHT22;5715;48.234;14.320;2024-02-26T10:02:58;5.90;99.90
11320;DHT22;5715;48.234;14.320;2024-02-26T10:05:50;5.90;99.90
11320;DHT22;5715;48.234;14.320;2024-02-26T10:08:38;5.80;99.90
11320;DHT22;5715;48.234;14.320;2024-02-26T10:11:27;5.80;99.90
11320;DHT22;5715;48.234;14.320;2024-02-26T10:14:18;5.90;99.90
11320;DHT22;5715;48.234;14.320;2024-02-26T10:17:09;5.90;99.90
11320;DHT22;5715;48.234;14.320;2024-02-26T10:20:17;5.80;99.90
11320;DHT22;5715;48.234;14.320;2024-02-26T10:23:09;5.90;99.90
11320;DHT22;5715;48.234;14.320;2024-02-26T10:25:57;6.10;99.90
11320;DHT22;5715;48.234;14.320;2024-02-26T10:28:45;6.30;99.90
11320;DHT22;5715;48.234;14.320;2024-02-26T10:31:37;6.60;99.90
11320;DHT22;5715;48.234;14.320;2024-02-26T10:34:25;6.80;99.90
11320;DHT22;5715;48.234;14.320;2024-02-26T10:37:14;7.00;99.90
11320;DHT22;5715;48.234;14.320;2024-02-26T10:40:02;6.80;99.90
11320;DHT22;5715;48.234;14.320;2024-02-26T10:42:50;7.00;99.90
11320;DHT22;5715;48.234;14.320;2024-02-26T10:45:38;7.10;99.90
11320;DHT22;5715;48.234;14.320;2024-02-26T10:48:30;7.20;99.90
11320;DHT22;5715;48.234;14.320;2024-02-26T10:51:26;7.30;99.90
11320;DHT22;5715;48.234;14.320;2024-02-26T10:54:16;7.50;99.90
11320;DHT22;5715;48.234;14.320;2024-02-26T10:57:06;7.50;99.90
11320;DHT22;5715;48.234;14.320;2024-02-26T10:59:56;7.60;99.90
11320;DHT22;5715;48.234;14.320;2024-02-26T11:02:45;7.80;99.90
11320;DHT22;5715;48.234;14.320;2024-02-26T11:05:36;8.10;99.90
11320;DHT22;5715;48.234;14.320;2024-02-26T11:08:26;8.20;99.90
11320;DHT22;5715;48.234;14.320;2024-02-26T11:11:16;8.40;99.90
11320;DHT22;5715;48.234;14.320;2024-02-26T11:14:05;8.50;99.90
11320;DHT22;5715;48.234;14.320;2024-02-26T11:16:57;8.40;99.90
11320;DHT22;5715;48.234;14.320;2024-02-26T11:19:48;8.50;99.90
11320;DHT22;5715;48.234;14.320;2024-02-26T11:22:38;8.40;99.90
11320;DHT22;5715;48.234;14.320;2024-02-26T11:25:25;8.40;99.90
11320;DHT22;5715;48.234;14.320;2024-02-26T11:28:15;8.30;99.90
11320;DHT22;5715;48.234;14.320;2024-02-26T11:31:05;8.30;99.90
11320;DHT22;5715;48.234;14.320;2024-02-26T11:33:56;8.50;99.90
11320;DHT22;5715;48.234;14.320;2024-02-26T11:36:45;8.70;99.90
11320;DHT22;5715;48.234;14.320;2024-02-26T11:39:34;8.80;99.90
11320;DHT22;5715;48.234;14.320;2024-02-26T11:42:24;9.00;99.90
11320;DHT22;5715;48.234;14.320;2024-02-26T11:48:28;9.30;99.90
11320;DHT22;5715;48.234;14.320;2024-02-26T11:51:16;9.60;99.90
11320;DHT22;5715;48.234;14.320;2024-02-26T11:54:04;9.90;99.90
11320;DHT22;5715;48.234;14.320;2024-02-26T11:56:52;10.20;99.90
11320;DHT22;5715;48.234;14.320;2024-02-26T11:59:40;10.50;99.90
11320;DHT22;5715;48.234;14.320;2024-02-26T12:02:47;10.50;99.90
11320;DHT22;5715;48.234;14.320;2024-02-26T12:05:48;10.50;99.90
11320;DHT22;5715;48.234;14.320;2024-02-26T12:08:38;10.70;99.90
11320;DHT22;5715;48.234;14.320;2024-02-26T12:11:27;10.80;99.90
11320;DHT22;5715;48.234;14.320;2024-02-26T12:14:18;10.80;99.90
11320;DHT22;5715;48.234;14.320;2024-02-26T12:17:07;10.70;99.90
11320;DHT22;5715;48.234;14.320;2024-02-26T12:20:10;10.50;99.90
11320;DHT22;5715;48.234;14.320;2024-02-26T12:22:58;10.40;99.90
11320;DHT22;5715;48.234;14.320;2024-02-26T12:25:46;10.30;99.90
11320;DHT22;5715;48.234;14.320;2024-02-26T12:28:35;10.20;99.90
11320;DHT22;5715;48.234;14.320;2024-02-26T12:31:23;10.00;99.90
11320;DHT22;5715;48.234;14.320;2024-02-26T12:34:10;10.00;99.90
11320;DHT22;5715;48.234;14.320;2024-02-26T12:36:58;10.00;99.90
11320;DHT22;5715;48.234;14.320;2024-02-26T12:39:46;9.90;99.90
11320;DHT22;5715;48.234;14.320;2024-02-26T12:42:34;9.80;99.90
11320;DHT22;5715;48.234;14.320;2024-02-26T12:45:26;9.80;99.90
11320;DHT22;5715;48.234;14.320;2024-02-26T12:48:15;9.80;99.90
11320;DHT22;5715;48.234;14.320;2024-02-26T12:51:12;9.70;99.90
11320;DHT22;5715;48.234;14.320;2024-02-26T12:54:02;9.60;99.90
11320;DHT22;5715;48.234;14.320;2024-02-26T12:56:51;9.70;99.90
11320;DHT22;5715;48.234;14.320;2024-02-26T12:59:39;9.70;99.90
11320;DHT22;5715;48.234;14.320;2024-02-26T13:02:30;9.70;99.90
11320;DHT22;5715;48.234;14.320;2024-02-26T13:05:20;9.80;99.90
11320;DHT22;5715;48.234;14.320;2024-02-26T13:08:08;9.80;99.90
11320;DHT22;5715;48.234;14.320;2024-02-26T13:10:59;9.80;99.90
11320;DHT22;5715;48.234;14.320;2024-02-26T13:13:51;10.00;99.90
11320;DHT22;5715;48.234;14.320;2024-02-26T13:16:40;10.20;99.90
11320;DHT22;5715;48.234;14.320;2024-02-26T13:19:27;10.20;99.90
11320;DHT22;5715;48.234;14.320;2024-02-26T13:22:15;10.20;99.90
11320;DHT22;5715;48.234;14.320;2024-02-26T13:25:03;10.30;99.90
11320;DHT22;5715;48.234;14.320;2024-02-26T13:27:51;10.30;99.90
11320;DHT22;5715;48.234;14.320;2024-02-26T13:30:39;10.20;99.90
11320;DHT22;5715;48.234;14.320;2024-02-26T13:33:28;10.10;99.90
11320;DHT22;5715;48.234;14.320;2024-02-26T13:36:17;10.20;99.90
11320;DHT22;5715;48.234;14.320;2024-02-26T13:39:05;10.20;99.90
11320;DHT22;5715;48.234;14.320;2024-02-26T13:41:53;10.20;99.90
11320;DHT22;5715;48.234;14.320;2024-02-26T13:44:42;10.20;99.90
11320;DHT22;5715;48.234;14.320;2024-02-26T13:47:29;10.20;99.90
11320;DHT22;5715;48.234;14.320;2024-02-26T13:50:20;10.10;99.90
11320;DHT22;5715;48.234;14.320;2024-02-26T13:53:11;10.20;99.90
11320;DHT22;5715;48.234;14.320;2024-02-26T13:55:59;10.20;99.90
11320;DHT22;5715;48.234;14.320;2024-02-26T13:58:48;10.20;99.90
11320;DHT22;5715;48.234;14.320;2024-02-26T14:01:35;10.30;99.90
11320;DHT22;5715;48.234;14.320;2024-02-26T14:04:23;10.40;99.90
11320;DHT22;5715;48.234;14.320;2024-02-26T14:07:11;10.40;99.90
11320;DHT22;5715;48.234;14.320;2024-02-26T14:10:00;10.60;99.90
11320;DHT22;5715;48.234;14.320;2024-02-26T14:12:48;10.70;99.90
11320;DHT22;5715;48.234;14.320;2024-02-26T14:15:35;10.80;99.90
11320;DHT22;5715;48.234;14.320;2024-02-26T14:18:25;10.80;99.90
11320;DHT22;5715;48.234;14.320;2024-02-26T14:21:14;10.80;99.90
11320;DHT22;5715;48.234;14.320;2024-02-26T14:24:03;10.90;99.90
11320;DHT22;5715;48.234;14.320;2024-02-26T14:26:51;10.90;99.90
11320;DHT22;5715;48.234;14.320;2024-02-26T14:29:38;10.80;99.90
11320;DHT22;5715;48.234;14.320;2024-02-26T14:32:28;10.80;99.90
11320;DHT22;5715;48.234;14.320;2024-02-26T14:35:16;10.80;99.90
11320;DHT22;5715;48.234;14.320;2024-02-26T14:38:04;10.70;99.90
11320;DHT22;5715;48.234;14.320;2024-02-26T14:40:52;10.70;99.90
11320;DHT22;5715;48.234;14.320;2024-02-26T14:43:39;10.70;99.90
11320;DHT22;5715;48.234;14.320;2024-02-26T14:46:30;10.70;99.90
11320;DHT22;5715;48.234;14.320;2024-02-26T14:49:18;10.70;99.90
11320;DHT22;5715;48.234;14.320;2024-02-26T14:52:06;10.60;99.90
11320;DHT22;5715;48.234;14.320;2024-02-26T14:54:53;10.60;99.90
11320;DHT22;5715;48.234;14.320;2024-02-26T14:57:41;10.50;99.90
11320;DHT22;5715;48.234;14.320;2024-02-26T15:00:28;10.40;99.90
11320;DHT22;5715;48.234;14.320;2024-02-26T15:03:16;10.20;99.90
11320;DHT22;5715;48.234;14.320;2024-02-26T15:06:04;10.20;99.90
11320;DHT22;5715;48.234;14.320;2024-02-26T15:08:52;10.20;99.90
11320;DHT22;5715;48.234;14.320;2024-02-26T15:11:40;10.10;99.90
11320;DHT22;5715;48.234;14.320;2024-02-26T15:14:28;10.00;99.90
11320;DHT22;5715;48.234;14.320;2024-02-26T15:17:16;10.10;99.90
11320;DHT22;5715;48.234;14.320;2024-02-26T15:20:04;10.10;99.90
11320;DHT22;5715;48.234;14.320;2024-02-26T15:22:55;10.20;99.90
11320;DHT22;5715;48.234;14.320;2024-02-26T15:25:42;10.20;99.90
11320;DHT22;5715;48.234;14.320;2024-02-26T15:28:31;10.20;99.90
11320;DHT22;5715;48.234;14.320;2024-02-26T15:31:19;10.20;99.90
11320;DHT22;5715;48.234;14.320;2024-02-26T15:34:07;10.20;99.90
11320;DHT22;5715;48.234;14.320;2024-02-26T15:36:55;10.20;99.90
11320;DHT22;5715;48.234;14.320;2024-02-26T15:39:42;10.10;99.90
11320;DHT22;5715;48.234;14.320;2024-02-26T15:42:33;10.10;99.90
11320;DHT22;5715;48.234;14.320;2024-02-26T15:45:20;10.10;99.90
11320;DHT22;5715;48.234;14.320;2024-02-26T15:48:08;10.00;99.90
11320;DHT22;5715;48.234;14.320;2024-02-26T15:50:57;10.00;99.90
11320;DHT22;5715;48.234;14.320;2024-02-26T15:53:46;10.00;99.90
11320;DHT22;5715;48.234;14.320;2024-02-26T15:56:34;10.00;99.90
11320;DHT22;5715;48.234;14.320;2024-02-26T15:59:22;9.90;99.90
11320;DHT22;5715;48.234;14.320;2024-02-26T16:02:11;9.90;99.90
11320;DHT22;5715;48.234;14.320;2024-02-26T16:05:00;9.80;99.90
11320;DHT22;5715;48.234;14.320;2024-02-26T16:07:56;9.70;99.90
11320;DHT22;5715;48.234;14.320;2024-02-26T16:10:47;9.70;99.90
11320;DHT22;5715;48.234;14.320;2024-02-26T16:13:36;9.60;99.90
11320;DHT22;5715;48.234;14.320;2024-02-26T16:16:25;9.60;99.90
11320;DHT22;5715;48.234;14.320;2024-02-26T16:19:18;9.50;99.90
11320;DHT22;5715;48.234;14.320;2024-02-26T16:22:08;9.50;99.90
11320;DHT22;5715;48.234;14.320;2024-02-26T16:24:56;9.50;99.90
11320;DHT22;5715;48.234;14.320;2024-02-26T16:27:43;9.40;99.90
11320;DHT22;5715;48.234;14.320;2024-02-26T16:30:31;9.40;99.90
11320;DHT22;5715;48.234;14.320;2024-02-26T16:33:19;9.30;99.90
11320;DHT22;5715;48.234;14.320;2024-02-26T16:36:09;9.30;99.90
11320;DHT22;5715;48.234;14.320;2024-02-26T16:38:59;9.30;99.90
11320;DHT22;5715;48.234;14.320;2024-02-26T16:41:47;9.30;99.90
11320;DHT22;5715;48.234;14.320;2024-02-26T16:44:35;9.20;99.90
11320;DHT22;5715;48.234;14.320;2024-02-26T16:47:24;9.20;99.90
11320;DHT22;5715;48.234;14.320;2024-02-26T16:50:12;9.10;99.90
11320;DHT22;5715;48.234;14.320;2024-02-26T16:53:00;9.00;99.90
11320;DHT22;5715;48.234;14.320;2024-02-26T16:55:47;9.00;99.90
11320;DHT22;5715;48.234;14.320;2024-02-26T16:58:35;9.00;99.90
11320;DHT22;5715;48.234;14.320;2024-02-26T17:01:23;8.90;99.90
11320;DHT22;5715;48.234;14.320;2024-02-26T17:04:11;8.90;99.90
11320;DHT22;5715;48.234;14.320;2024-02-26T17:07:00;8.90;99.90
11320;DHT22;5715;48.234;14.320;2024-02-26T17:09:48;8.90;99.90
11320;DHT22;5715;48.234;14.320;2024-02-26T17:12:36;8.80;99.90
11320;DHT22;5715;48.234;14.320;2024-02-26T17:15:23;8.70;99.90
11320;DHT22;5715;48.234;14.320;2024-02-26T17:18:11;8.60;99.90
11320;DHT22;5715;48.234;14.320;2024-02-26T17:21:00;8.40;99.90
11320;DHT22;5715;48.234;14.320;2024-02-26T17:23:48;8.30;99.90
11320;DHT22;5715;48.234;14.320;2024-02-26T17:26:36;8.30;99.90
11320;DHT22;5715;48.234;14.320;2024-02-26T17:29:24;8.20;99.90
11320;DHT22;5715;48.234;14.320;2024-02-26T17:32:11;8.10;99.90
11320;DHT22;5715;48.234;14.320;2024-02-26T17:35:02;8.10;99.90
11320;DHT22;5715;48.234;14.320;2024-02-26T17:37:51;8.10;99.90
11320;DHT22;5715;48.234;14.320;2024-02-26T17:40:39;8.00;99.90
11320;DHT22;5715;48.234;14.320;2024-02-26T17:43:26;7.90;99.90
11320;DHT22;5715;48.234;14.320;2024-02-26T17:46:14;7.80;99.90
11320;DHT22;5715;48.234;14.320;2024-02-26T17:49:01;7.70;99.90
11320;DHT22;5715;48.234;14.320;2024-02-26T17:51:49;7.70;99.90
11320;DHT22;5715;48.234;14.320;2024-02-26T17:54:37;7.60;99.90